< < Back
Terminal Aerodrome Forecast


Current Version              Previous Versions:   1  2  3  4  5  6  7  8  9  

Terminal Aerodrome Forecast

984
FTUS42 KFFC 291900 AAA
TAFFTY
TAF AMD
KFTY 291951Z 2920/3018 31009KT P6SM SCT050
     FM300000 32005KT P6SM SKC
     FM301300 04006KT P6SM FEW030=



Latest METAR

719
SAUS70 KWBC 300256
MTRFTY
METAR KFTY 300253Z 35006KT 10SM CLR 21/12 A3003 RMK AO2 SLP162 T02110117
52012


USA.gov is the U.S. government's official web portal to all federal, state and local government web resources and services.